Time;durP1;ratioP1;P1;durP2;ratioP2;P2;SDS_P1;SDS_P2;PMS_P1;PMS_P2;Temp;Humidity;BMP_temperature;BMP_pressure;BME280_temperature;BME280_humidity;BME280_pressure;Samples;Min_cycle;Max_cycle;Signal;HPM_P1;HPM_P2
2022/04/27 00:01:58;;;;;;;1.73;1.63;;;;;;;;;;5145972;27;20525;-53
2022/04/27 00:04:36;;;;;;;1.70;1.60;;;;;;;;;;5141578;27;20555;-54
2022/04/27 00:07:14;;;;;;;1.65;1.55;;;;;;;;;;5156086;27;20540;-55
2022/04/27 00:09:53;;;;;;;2.20;1.25;;;;;;;;;;5145010;27;20563;-54
2022/04/27 00:12:31;;;;;;;1.77;1.67;;;;;;;;;;5143766;27;20573;-52
2022/04/27 00:15:10;;;;;;;2.15;2.00;;;;;;;;;;5135110;27;20651;-54
2022/04/27 00:17:49;;;;;;;1.42;1.40;;;;;;;;;;5102991;27;20625;-55
2022/04/27 00:20:27;;;;;;;1.40;1.30;;;;;;;;;;5142649;27;20522;-55
2022/04/27 00:23:05;;;;;;;1.77;1.67;;;;;;;;;;5155647;27;20601;-53
2022/04/27 00:25:44;;;;;;;1.80;1.70;;;;;;;;;;5149354;27;20626;-55
2022/04/27 00:28:23;;;;;;;1.70;1.60;;;;;;;;;;5159134;27;20605;-53
2022/04/27 00:31:02;;;;;;;1.90;1.80;;;;;;;;;;5159025;27;20557;-56
2022/04/27 00:33:41;;;;;;;1.80;1.70;;;;;;;;;;5107506;27;20614;-56
2022/04/27 00:36:20;;;;;;;1.80;1.70;;;;;;;;;;5151167;27;20544;-53
2022/04/27 00:38:58;;;;;;;1.90;1.80;;;;;;;;;;5160343;27;20536;-54
2022/04/27 00:41:36;;;;;;;2.67;2.00;;;;;;;;;;5115801;27;20613;-55
2022/04/27 00:44:14;;;;;;;1.73;1.63;;;;;;;;;;5143746;27;20618;-53
2022/04/27 00:46:52;;;;;;;2.10;2.00;;;;;;;;;;5147800;27;20612;-53
2022/04/27 00:49:32;;;;;;;1.65;1.55;;;;;;;;;;5159009;27;20555;-54
2022/04/27 00:52:12;;;;;;;2.08;1.90;;;;;;;;;;5160931;27;21111;-54
2022/04/27 00:54:53;;;;;;;2.20;2.10;;;;;;;;;;5142342;27;20566;-56
2022/04/27 00:57:32;;;;;;;2.15;2.05;;;;;;;;;;5160766;27;20608;-54
2022/04/27 01:00:11;;;;;;;2.42;2.33;;;;;;;;;;5159559;27;21006;-55
2022/04/27 01:02:50;;;;;;;2.47;2.28;;;;;;;;;;5160405;27;20726;-53
2022/04/27 01:05:30;;;;;;;2.72;2.05;;;;;;;;;;5160521;27;20573;-55
2022/04/27 01:08:10;;;;;;;1.75;1.65;;;;;;;;;;5160569;27;20534;-55
2022/04/27 01:10:50;;;;;;;2.10;2.00;;;;;;;;;;5160599;27;20796;-53
2022/04/27 01:13:31;;;;;;;2.10;2.00;;;;;;;;;;5129440;27;20567;-56
2022/04/27 01:16:11;;;;;;;1.90;1.80;;;;;;;;;;5160648;27;20609;-53
2022/04/27 01:18:51;;;;;;;2.22;2.13;;;;;;;;;;5115633;27;20612;-54
2022/04/27 01:21:30;;;;;;;2.42;2.22;;;;;;;;;;5160024;27;20958;-53
2022/04/27 01:24:17;;;;;;;2.20;2.10;;;;;;;;;;5142226;27;20584;-53
2022/04/27 01:26:56;;;;;;;2.53;2.33;;;;;;;;;;5153841;27;20604;-55
2022/04/27 01:29:35;;;;;;;1.98;1.88;;;;;;;;;;5151449;27;20589;-57
2022/04/27 01:32:13;;;;;;;2.50;2.30;;;;;;;;;;5133980;27;20375;-55
2022/04/27 01:34:51;;;;;;;3.10;2.85;;;;;;;;;;5133474;27;20620;-55
2022/04/27 01:40:28;;;;;;;2.25;2.15;;;;;;;;;;5139616;27;20622;-53
2022/04/27 01:43:08;;;;;;;2.40;2.30;;;;;;;;;;5145873;27;20988;-55
2022/04/27 01:45:46;;;;;;;2.28;2.13;;;;;;;;;;5158580;27;20542;-54
2022/04/27 01:48:26;;;;;;;1.88;1.77;;;;;;;;;;5156919;27;20609;-53
2022/04/27 01:51:04;;;;;;;2.78;2.58;;;;;;;;;;5159744;27;20678;-54
2022/04/27 01:56:43;;;;;;;3.33;2.83;;;;;;;;;;5160580;27;20593;-53
2022/04/27 01:59:21;;;;;;;2.95;2.78;;;;;;;;;;5159274;27;20554;-54
2022/04/27 02:02:00;;;;;;;2.70;2.50;;;;;;;;;;5158218;27;20546;-55
2022/04/27 02:04:39;;;;;;;2.92;2.72;;;;;;;;;;5144342;27;20542;-56
2022/04/27 02:07:19;;;;;;;2.35;2.25;;;;;;;;;;5151826;27;20676;-54
2022/04/27 02:09:58;;;;;;;2.85;2.65;;;;;;;;;;5159544;27;20605;-54
2022/04/27 02:12:36;;;;;;;3.15;2.95;;;;;;;;;;5160712;27;20697;-53
2022/04/27 02:15:24;;;;;;;3.75;3.45;;;;;;;;;;5160231;27;20604;-53
2022/04/27 02:18:17;;;;;;;3.40;3.20;;;;;;;;;;5160497;27;20521;-54
2022/04/27 02:20:57;;;;;;;3.30;3.10;;;;;;;;;;5160490;27;21343;-53
2022/04/27 02:23:36;;;;;;;3.38;3.17;;;;;;;;;;5153658;27;21005;-53
2022/04/27 02:26:16;;;;;;;2.95;2.75;;;;;;;;;;5160376;27;20691;-54
2022/04/27 02:28:56;;;;;;;3.00;2.80;;;;;;;;;;5160512;27;20547;-55
2022/04/27 02:31:34;;;;;;;2.78;2.58;;;;;;;;;;5158370;27;21039;-54
2022/04/27 02:34:12;;;;;;;2.50;2.40;;;;;;;;;;5147482;27;20968;-54
2022/04/27 02:36:53;;;;;;;2.75;2.65;;;;;;;;;;5157242;27;20600;-53
2022/04/27 02:39:33;;;;;;;2.53;2.42;;;;;;;;;;5155709;27;20622;-54
2022/04/27 02:42:12;;;;;;;2.75;2.65;;;;;;;;;;5159831;27;20596;-53
2022/04/27 02:44:51;;;;;;;3.13;2.83;;;;;;;;;;5141897;27;20626;-55
2022/04/27 02:47:31;;;;;;;2.80;2.60;;;;;;;;;;5115879;27;21166;-54
2022/04/27 02:53:12;;;;;;;2.85;2.55;;;;;;;;;;5155655;27;20634;-54
2022/04/27 02:55:50;;;;;;;2.80;2.60;;;;;;;;;;5160634;27;21040;-55
2022/04/27 02:58:30;;;;;;;2.75;2.55;;;;;;;;;;5160648;27;20616;-57
2022/04/27 03:01:08;;;;;;;2.50;2.40;;;;;;;;;;5106530;27;20965;-56
2022/04/27 03:03:48;;;;;;;2.50;2.40;;;;;;;;;;5110092;27;20671;-55
2022/04/27 03:06:26;;;;;;;2.45;2.33;;;;;;;;;;5115376;27;21130;-55
2022/04/27 03:09:06;;;;;;;2.40;2.30;;;;;;;;;;5159790;27;20524;-55
2022/04/27 03:11:44;;;;;;;2.25;2.15;;;;;;;;;;5160880;27;21065;-53
2022/04/27 03:14:35;;;;;;;1.85;1.75;;;;;;;;;;5144758;27;20575;-53
2022/04/27 03:17:13;;;;;;;2.10;2.00;;;;;;;;;;5160157;27;20612;-53
2022/04/27 03:19:53;;;;;;;2.28;2.17;;;;;;;;;;5135343;27;21022;-55
2022/04/27 03:22:31;;;;;;;2.30;2.20;;;;;;;;;;5160390;27;20532;-55
2022/04/27 03:25:10;;;;;;;2.30;2.20;;;;;;;;;;5139369;27;20614;-54
2022/04/27 03:27:49;;;;;;;1.95;1.85;;;;;;;;;;5160786;27;20528;-56
2022/04/27 03:30:28;;;;;;;2.10;2.00;;;;;;;;;;5157558;27;20666;-56
2022/04/27 03:33:09;;;;;;;2.28;2.08;;;;;;;;;;5160764;27;20636;-53
2022/04/27 03:35:49;;;;;;;2.13;2.03;;;;;;;;;;5160902;27;20602;-54
2022/04/27 03:38:29;;;;;;;2.00;1.90;;;;;;;;;;5139454;27;20563;-54
2022/04/27 03:41:08;;;;;;;2.17;1.92;;;;;;;;;;5158235;27;20536;-54
2022/04/27 03:43:50;;;;;;;2.03;1.92;;;;;;;;;;5150791;27;20622;-54
2022/04/27 03:46:30;;;;;;;2.15;2.05;;;;;;;;;;5159204;27;20533;-55
2022/04/27 03:49:10;;;;;;;2.38;2.20;;;;;;;;;;5159780;27;20520;-53
2022/04/27 03:51:48;;;;;;;2.35;2.25;;;;;;;;;;5160765;27;20525;-53
2022/04/27 03:54:29;;;;;;;2.58;2.47;;;;;;;;;;5145083;27;21073;-53
2022/04/27 03:57:07;;;;;;;2.50;2.30;;;;;;;;;;5160988;27;20553;-55
2022/04/27 03:59:47;;;;;;;3.88;2.30;;;;;;;;;;5159732;27;20994;-56
2022/04/27 04:02:27;;;;;;;2.00;1.88;;;;;;;;;;5160883;27;20624;-53
2022/04/27 04:05:07;;;;;;;2.72;2.53;;;;;;;;;;5116291;27;20550;-54
2022/04/27 04:07:47;;;;;;;2.40;2.30;;;;;;;;;;5160982;27;20538;-55
2022/04/27 04:10:27;;;;;;;2.38;2.22;;;;;;;;;;5115099;27;20699;-56
2022/04/27 04:13:05;;;;;;;2.30;2.10;;;;;;;;;;5152944;27;20604;-57
2022/04/27 04:16:07;;;;;;;2.25;2.15;;;;;;;;;;5115963;27;21106;-53
2022/04/27 04:19:05;;;;;;;2.50;2.35;;;;;;;;;;5160398;27;20655;-56
2022/04/27 04:22:08;;;;;;;2.38;2.28;;;;;;;;;;5137134;27;20539;-51
2022/04/27 04:30:57;;;;;;;2.08;1.98;;;;;;;;;;5142610;27;20975;-53
2022/04/27 04:34:01;;;;;;;2.80;2.60;;;;;;;;;;5145272;27;21292;-52
2022/04/27 04:36:41;;;;;;;2.50;2.40;;;;;;;;;;5160492;27;20609;-53
2022/04/27 04:39:19;;;;;;;2.45;2.35;;;;;;;;;;5158465;27;20633;-53
2022/04/27 04:41:59;;;;;;;2.45;2.35;;;;;;;;;;5140875;27;20699;-53
2022/04/27 04:44:37;;;;;;;2.88;2.67;;;;;;;;;;5144266;27;20629;-53
2022/04/27 04:47:43;;;;;;;2.90;2.70;;;;;;;;;;5138922;27;20559;-54
2022/04/27 04:50:51;;;;;;;2.45;2.25;;;;;;;;;;5103617;27;20636;-53
2022/04/27 04:54:06;;;;;;;2.35;2.25;;;;;;;;;;5147612;27;20692;-55
2022/04/27 04:57:01;;;;;;;2.50;2.30;;;;;;;;;;5160374;27;20751;-55
2022/04/27 05:00:00;;;;;;;2.85;2.65;;;;;;;;;;5159446;27;20569;-54
2022/04/27 05:02:57;;;;;;;2.83;2.58;;;;;;;;;;5159895;27;20553;-57
2022/04/27 05:05:55;;;;;;;2.83;2.63;;;;;;;;;;5134062;27;20587;-54
2022/04/27 05:08:50;;;;;;;4.45;2.88;;;;;;;;;;5152259;27;20609;-53
2022/04/27 05:11:56;;;;;;;3.55;3.25;;;;;;;;;;5145644;27;20602;-54
2022/04/27 05:14:55;;;;;;;3.60;3.40;;;;;;;;;;5129375;27;20615;-54
2022/04/27 05:17:51;;;;;;;3.78;3.58;;;;;;;;;;5160532;27;20670;-53
2022/04/27 05:20:46;;;;;;;5.28;4.93;;;;;;;;;;5113637;27;20821;-52
2022/04/27 05:23:42;;;;;;;4.45;4.22;;;;;;;;;;5140847;27;20553;-54
2022/04/27 05:26:36;;;;;;;4.70;4.40;;;;;;;;;;5159526;27;20535;-54
2022/04/27 05:32:56;;;;;;;5.80;5.40;;;;;;;;;;5158879;27;20914;-56
2022/04/27 05:35:54;;;;;;;5.45;5.07;;;;;;;;;;5161077;27;20617;-53
2022/04/27 05:39:06;;;;;;;6.13;5.72;;;;;;;;;;5137327;27;20598;-57
2022/04/27 05:42:04;;;;;;;5.07;4.78;;;;;;;;;;5096958;27;20630;-54
2022/04/27 05:45:10;;;;;;;6.70;6.30;;;;;;;;;;5138238;27;20705;-55
2022/04/27 05:47:58;;;;;;;8.15;7.65;;;;;;;;;;5143075;27;20551;-55
2022/04/27 05:50:54;;;;;;;7.93;7.32;;;;;;;;;;5159624;27;20798;-52
2022/04/27 05:54:00;;;;;;;8.25;7.75;;;;;;;;;;5131482;27;20619;-55
2022/04/27 05:57:02;;;;;;;8.32;7.82;;;;;;;;;;5159615;27;20618;-55
2022/04/27 05:59:59;;;;;;;7.30;6.80;;;;;;;;;;5142402;27;21176;-54
2022/04/27 06:03:09;;;;;;;7.88;7.38;;;;;;;;;;5142566;27;21201;-53
2022/04/27 06:05:49;;;;;;;9.18;8.57;;;;;;;;;;5159516;27;20605;-53
2022/04/27 06:08:31;;;;;;;9.00;8.40;;;;;;;;;;5140323;27;20660;-55
2022/04/27 06:11:16;;;;;;;9.25;8.65;;;;;;;;;;5108190;27;20559;-54
2022/04/27 06:14:18;;;;;;;8.60;8.02;;;;;;;;;;5145014;27;20972;-54
2022/04/27 06:17:02;;;;;;;9.88;9.10;;;;;;;;;;5154415;27;20641;-53
2022/04/27 06:19:42;;;;;;;10.70;9.77;;;;;;;;;;5158282;27;20534;-52
2022/04/27 06:22:27;;;;;;;12.02;9.13;;;;;;;;;;5161441;27;20626;-54
2022/04/27 06:25:07;;;;;;;9.57;8.98;;;;;;;;;;5089693;27;21091;-54
2022/04/27 06:27:58;;;;;;;10.77;10.07;;;;;;;;;;5138267;27;20696;-53
2022/04/27 06:30:37;;;;;;;10.40;9.60;;;;;;;;;;5158661;27;21057;-55
2022/04/27 06:33:17;;;;;;;10.15;9.45;;;;;;;;;;5154024;27;20664;-53
2022/04/27 06:35:57;;;;;;;10.95;10.35;;;;;;;;;;5160665;27;20612;-54
2022/04/27 06:38:35;;;;;;;11.50;10.80;;;;;;;;;;5102414;27;20600;-54
2022/04/27 06:41:20;;;;;;;10.90;10.20;;;;;;;;;;5107513;27;20547;-54
2022/04/27 06:44:25;;;;;;;10.45;9.85;;;;;;;;;;5089496;27;20616;-55
2022/04/27 06:47:23;;;;;;;10.32;9.63;;;;;;;;;;5149340;27;20970;-56
2022/04/27 06:50:20;;;;;;;9.73;9.02;;;;;;;;;;5141944;27;20603;-53
2022/04/27 06:53:18;;;;;;;11.75;11.05;;;;;;;;;;5154991;27;20461;-54
2022/04/27 06:56:16;;;;;;;10.93;10.23;;;;;;;;;;5136603;27;20677;-55
2022/04/27 06:59:21;;;;;;;13.13;12.20;;;;;;;;;;5157153;27;20949;-57
2022/04/27 07:02:02;;;;;;;15.32;14.10;;;;;;;;;;5151078;27;20539;-56
2022/04/27 07:04:43;;;;;;;16.00;14.73;;;;;;;;;;5101359;27;20671;-54
2022/04/27 07:07:22;;;;;;;14.90;13.85;;;;;;;;;;5153652;27;21140;-56
2022/04/27 07:10:00;;;;;;;12.82;12.02;;;;;;;;;;5158100;27;20605;-55
2022/04/27 07:12:38;;;;;;;13.27;12.15;;;;;;;;;;5153714;27;20604;-52
2022/04/27 07:15:16;;;;;;;13.80;12.63;;;;;;;;;;5151976;27;20528;-53
2022/04/27 07:17:55;;;;;;;13.98;13.05;;;;;;;;;;5149101;27;20560;-57
2022/04/27 07:20:33;;;;;;;13.15;12.25;;;;;;;;;;5096292;27;21116;-52
2022/04/27 07:23:11;;;;;;;13.52;12.65;;;;;;;;;;5156574;27;20626;-55
2022/04/27 07:25:51;;;;;;;14.13;13.02;;;;;;;;;;5160500;27;20867;-52
2022/04/27 07:28:31;;;;;;;14.68;13.70;;;;;;;;;;5160526;27;20920;-52
2022/04/27 07:31:09;;;;;;;15.52;14.48;;;;;;;;;;5158907;27;20510;-55
2022/04/27 07:33:47;;;;;;;13.95;12.82;;;;;;;;;;5149598;27;20614;-53
2022/04/27 07:36:25;;;;;;;14.18;13.13;;;;;;;;;;5148805;27;20606;-53
2022/04/27 07:39:05;;;;;;;14.45;13.48;;;;;;;;;;5159928;27;20538;-55
2022/04/27 07:41:45;;;;;;;13.52;12.68;;;;;;;;;;5155363;27;20957;-53
2022/04/27 07:44:25;;;;;;;16.10;14.77;;;;;;;;;;5137231;27;20617;-54
2022/04/27 07:47:05;;;;;;;13.60;12.70;;;;;;;;;;5115717;27;20609;-55
2022/04/27 07:49:46;;;;;;;13.57;12.63;;;;;;;;;;5159498;27;20612;-52
2022/04/27 07:52:24;;;;;;;13.13;12.23;;;;;;;;;;5159886;27;20533;-53
2022/04/27 07:55:03;;;;;;;13.93;12.77;;;;;;;;;;5140782;27;20550;-53
2022/04/27 07:57:41;;;;;;;14.05;13.02;;;;;;;;;;5160863;27;20534;-50
2022/04/27 08:00:19;;;;;;;13.02;11.88;;;;;;;;;;5147485;27;20671;-54
2022/04/27 08:02:58;;;;;;;12.85;12.02;;;;;;;;;;5138231;27;20539;-54
2022/04/27 08:05:37;;;;;;;12.35;11.35;;;;;;;;;;5161137;27;20978;-54
2022/04/27 08:08:15;;;;;;;13.45;12.45;;;;;;;;;;5160944;27;20528;-52
2022/04/27 08:10:53;;;;;;;13.43;12.38;;;;;;;;;;5160005;27;20905;-53
2022/04/27 08:13:32;;;;;;;11.85;11.05;;;;;;;;;;5139981;27;20582;-52
2022/04/27 08:16:12;;;;;;;13.48;12.57;;;;;;;;;;5160766;27;20982;-52
2022/04/27 08:18:51;;;;;;;11.38;10.65;;;;;;;;;;5160399;27;20549;-53
2022/04/27 08:21:30;;;;;;;11.13;10.18;;;;;;;;;;5160212;27;20956;-53
2022/04/27 08:24:11;;;;;;;10.45;9.65;;;;;;;;;;5127951;27;20976;-53
2022/04/27 08:26:51;;;;;;;12.15;11.25;;;;;;;;;;5160703;27;20514;-54
2022/04/27 08:29:31;;;;;;;13.38;12.38;;;;;;;;;;5159727;27;20640;-55
2022/04/27 08:32:09;;;;;;;11.43;10.52;;;;;;;;;;5160998;27;20539;-57
2022/04/27 08:34:51;;;;;;;11.15;10.25;;;;;;;;;;5143548;27;20929;-53
2022/04/27 08:37:30;;;;;;;10.10;9.27;;;;;;;;;;5160580;27;20617;-56
2022/04/27 08:40:09;;;;;;;10.25;9.43;;;;;;;;;;5159590;27;20536;-53
2022/04/27 08:42:49;;;;;;;9.05;8.45;;;;;;;;;;5153293;27;20548;-54
2022/04/27 08:45:29;;;;;;;11.63;10.70;;;;;;;;;;5161030;27;20604;-55
2022/04/27 08:48:08;;;;;;;11.00;10.20;;;;;;;;;;5160412;27;20553;-54
2022/04/27 08:50:48;;;;;;;9.10;8.30;;;;;;;;;;5115255;27;21110;-54
2022/04/27 08:53:26;;;;;;;10.00;9.30;;;;;;;;;;5143132;27;20618;-53
2022/04/27 08:56:06;;;;;;;9.40;8.80;;;;;;;;;;5136636;27;21097;-56
2022/04/27 08:58:46;;;;;;;9.15;8.45;;;;;;;;;;5160994;27;20536;-53
2022/04/27 09:01:24;;;;;;;9.55;8.75;;;;;;;;;;5147253;27;21095;-55
2022/04/27 09:04:15;;;;;;;9.65;8.95;;;;;;;;;;5148053;27;20922;-55
2022/04/27 09:06:53;;;;;;;9.90;9.13;;;;;;;;;;5160982;27;20616;-53
2022/04/27 09:09:36;;;;;;;8.30;7.70;;;;;;;;;;5160516;27;20571;-55
2022/04/27 09:12:17;;;;;;;7.63;7.13;;;;;;;;;;5153010;27;20542;-53
2022/04/27 09:14:58;;;;;;;8.38;7.78;;;;;;;;;;5142078;27;21068;-53
2022/04/27 09:20:50;;;;;;;8.55;7.95;;;;;;;;;;5160413;27;20550;-54
2022/04/27 09:23:36;;;;;;;7.32;6.82;;;;;;;;;;5154643;27;20547;-56
2022/04/27 09:26:19;;;;;;;6.55;6.15;;;;;;;;;;5159959;27;20546;-54
2022/04/27 09:28:59;;;;;;;5.72;5.32;;;;;;;;;;5160870;27;20284;-53
2022/04/27 09:31:38;;;;;;;5.85;5.45;;;;;;;;;;5116445;27;20538;-52
2022/04/27 09:34:28;;;;;;;5.32;4.93;;;;;;;;;;5147992;27;20656;-53
2022/04/27 09:37:14;;;;;;;5.20;4.90;;;;;;;;;;5161690;27;21022;-56
2022/04/27 09:40:03;;;;;;;4.68;4.38;;;;;;;;;;5160610;27;20549;-56
2022/04/27 09:42:46;;;;;;;5.70;5.20;;;;;;;;;;5154024;27;20625;-53
2022/04/27 09:45:26;;;;;;;6.47;5.97;;;;;;;;;;5149318;27;20975;-55
2022/04/27 09:48:07;;;;;;;5.47;5.10;;;;;;;;;;5161823;27;20835;-55
2022/04/27 09:50:49;;;;;;;5.38;4.88;;;;;;;;;;5160425;27;20593;-55
2022/04/27 09:53:27;;;;;;;5.78;5.28;;;;;;;;;;5155098;27;20953;-53
2022/04/27 09:56:07;;;;;;;4.57;4.20;;;;;;;;;;5159727;27;20544;-53
2022/04/27 09:58:47;;;;;;;5.00;4.70;;;;;;;;;;5160869;27;20534;-56
2022/04/27 10:01:26;;;;;;;3.60;3.30;;;;;;;;;;5147093;27;20558;-53
2022/04/27 10:04:06;;;;;;;2.78;2.55;;;;;;;;;;5102352;27;20547;-53
2022/04/27 10:06:44;;;;;;;2.95;2.75;;;;;;;;;;5161387;27;20542;-56
2022/04/27 10:09:23;;;;;;;2.25;2.15;;;;;;;;;;5156687;27;20541;-54
2022/04/27 10:12:02;;;;;;;3.85;2.28;;;;;;;;;;5153600;27;20609;-54
2022/04/27 10:14:41;;;;;;;2.17;2.08;;;;;;;;;;5144020;27;20546;-55
2022/04/27 10:17:19;;;;;;;2.50;2.30;;;;;;;;;;5149822;27;20531;-54
2022/04/27 10:19:57;;;;;;;2.13;2.03;;;;;;;;;;5160090;27;20506;-54
2022/04/27 10:22:35;;;;;;;3.28;2.13;;;;;;;;;;5161301;27;20972;-55
2022/04/27 10:25:14;;;;;;;2.53;2.30;;;;;;;;;;5160603;27;20536;-53
2022/04/27 10:27:52;;;;;;;2.30;2.10;;;;;;;;;;5161252;27;20570;-52
2022/04/27 10:30:43;;;;;;;3.25;2.00;;;;;;;;;;5156637;27;20851;-53
2022/04/27 10:33:36;;;;;;;1.90;1.80;;;;;;;;;;5143924;27;20669;-56
2022/04/27 10:36:37;;;;;;;1.67;1.58;;;;;;;;;;5161541;27;20555;-53
2022/04/27 10:39:32;;;;;;;3.05;1.88;;;;;;;;;;5160229;27;21034;-53
2022/04/27 10:42:25;;;;;;;1.90;1.80;;;;;;;;;;5153425;27;20614;-52
2022/04/27 10:45:12;;;;;;;2.20;2.10;;;;;;;;;;5140884;27;20977;-54
2022/04/27 10:47:51;;;;;;;1.80;1.70;;;;;;;;;;5160992;27;20608;-53
2022/04/27 10:50:33;;;;;;;2.22;1.77;;;;;;;;;;5159789;27;20606;-53
2022/04/27 10:53:19;;;;;;;3.20;1.65;;;;;;;;;;5157257;27;20551;-54
2022/04/27 10:55:59;;;;;;;1.88;1.77;;;;;;;;;;5160823;27;20983;-53
2022/04/27 10:58:42;;;;;;;1.98;1.88;;;;;;;;;;5161045;27;20528;-53
2022/04/27 11:01:25;;;;;;;1.45;1.35;;;;;;;;;;5159709;27;20532;-54
2022/04/27 11:04:14;;;;;;;1.70;1.60;;;;;;;;;;5148195;27;20541;-54
2022/04/27 11:07:03;;;;;;;1.38;1.30;;;;;;;;;;5160954;27;20561;-54
2022/04/27 11:10:14;;;;;;;1.90;1.50;;;;;;;;;;5160202;27;20540;-53
2022/04/27 11:12:54;;;;;;;1.50;1.40;;;;;;;;;;5108553;27;20605;-56
2022/04/27 11:15:33;;;;;;;1.23;1.15;;;;;;;;;;5160526;27;20547;-53
2022/04/27 11:18:13;;;;;;;1.73;1.60;;;;;;;;;;5160663;27;20533;-53
2022/04/27 11:21:02;;;;;;;2.10;1.90;;;;;;;;;;5159551;27;20541;-53
2022/04/27 11:23:41;;;;;;;2.10;1.73;;;;;;;;;;5152824;27;20994;-56
2022/04/27 11:26:20;;;;;;;1.90;1.80;;;;;;;;;;5138858;27;20563;-55
2022/04/27 11:29:01;;;;;;;2.00;1.83;;;;;;;;;;5160307;27;20893;-54
2022/04/27 11:31:40;;;;;;;2.08;1.92;;;;;;;;;;5160734;27;20542;-54
2022/04/27 11:34:29;;;;;;;3.38;1.92;;;;;;;;;;5144499;27;20547;-53
2022/04/27 11:37:17;;;;;;;2.05;1.90;;;;;;;;;;5150846;27;20413;-53
2022/04/27 11:40:12;;;;;;;1.92;1.83;;;;;;;;;;5081718;27;20555;-54
2022/04/27 11:42:51;;;;;;;1.65;1.55;;;;;;;;;;5081451;28;20562;-56
2022/04/27 11:45:31;;;;;;;2.10;2.00;;;;;;;;;;5103008;27;20615;-53
2022/04/27 11:48:12;;;;;;;1.88;1.77;;;;;;;;;;5082585;28;20672;-53
2022/04/27 11:50:52;;;;;;;1.65;1.35;;;;;;;;;;5101777;27;20672;-53
2022/04/27 11:53:32;;;;;;;1.80;1.70;;;;;;;;;;5075922;27;20591;-54
2022/04/27 11:56:12;;;;;;;1.88;1.65;;;;;;;;;;5136331;27;20657;-55
2022/04/27 11:58:51;;;;;;;1.70;1.60;;;;;;;;;;5102588;27;20530;-55
2022/04/27 12:01:31;;;;;;;1.50;1.40;;;;;;;;;;5081955;28;20680;-56
2022/04/27 12:04:12;;;;;;;1.83;1.50;;;;;;;;;;5073034;28;20590;-55
2022/04/27 12:06:52;;;;;;;1.40;1.30;;;;;;;;;;5074406;28;20566;-53
2022/04/27 12:09:32;;;;;;;1.65;1.55;;;;;;;;;;5080344;27;20557;-55
2022/04/27 12:12:13;;;;;;;1.70;1.60;;;;;;;;;;5121531;27;20613;-53
2022/04/27 12:14:52;;;;;;;1.88;1.65;;;;;;;;;;5076447;27;20692;-56
2022/04/27 12:17:46;;;;;;;2.03;1.80;;;;;;;;;;5140467;27;21209;-56
2022/04/27 12:20:38;;;;;;;1.90;1.80;;;;;;;;;;5122494;27;20688;-55
2022/04/27 12:23:19;;;;;;;3.83;1.80;;;;;;;;;;5098948;27;20952;-54
2022/04/27 12:26:00;;;;;;;1.45;1.35;;;;;;;;;;5121925;27;21063;-54
2022/04/27 12:28:46;;;;;;;2.33;1.65;;;;;;;;;;5135321;27;20552;-56
2022/04/27 12:31:32;;;;;;;3.28;1.75;;;;;;;;;;5057547;28;20742;-55
2022/04/27 12:40:16;;;;;;;1.60;1.50;;;;;;;;;;5081411;28;20683;-54
2022/04/27 12:43:04;;;;;;;1.27;1.23;;;;;;;;;;5090478;28;21022;-55
2022/04/27 12:46:01;;;;;;;2.28;1.30;;;;;;;;;;5084022;27;20565;-56
2022/04/27 12:48:40;;;;;;;1.20;1.13;;;;;;;;;;5145977;27;21212;-53
2022/04/27 12:51:29;;;;;;;1.52;1.42;;;;;;;;;;5083270;28;20671;-54
2022/04/27 12:54:09;;;;;;;1.60;1.50;;;;;;;;;;5092947;27;20709;-53
2022/04/27 12:56:49;;;;;;;1.25;1.10;;;;;;;;;;5073947;28;20692;-55
2022/04/27 12:59:29;;;;;;;2.78;1.52;;;;;;;;;;5074655;27;20601;-54
2022/04/27 13:02:11;;;;;;;1.30;1.20;;;;;;;;;;5099370;27;20561;-55
2022/04/27 13:04:51;;;;;;;1.75;1.50;;;;;;;;;;5088547;27;20685;-53
2022/04/27 13:07:32;;;;;;;1.50;1.40;;;;;;;;;;5075637;27;21167;-55
2022/04/27 13:13:08;;;;;;;1.60;1.50;;;;;;;;;;5130937;27;20583;-55
2022/04/27 13:15:49;;;;;;;1.73;1.63;;;;;;;;;;5128575;27;20679;-54
2022/04/27 13:18:29;;;;;;;1.77;1.63;;;;;;;;;;5104094;27;20622;-54
2022/04/27 13:21:09;;;;;;;1.67;1.58;;;;;;;;;;5102506;27;20611;-54
2022/04/27 13:23:48;;;;;;;1.80;1.70;;;;;;;;;;5074877;28;20556;-54
2022/04/27 13:26:28;;;;;;;2.30;1.80;;;;;;;;;;5103863;27;20679;-56
2022/04/27 13:29:08;;;;;;;1.45;1.35;;;;;;;;;;5143750;27;21195;-54
2022/04/27 13:31:48;;;;;;;1.92;1.65;;;;;;;;;;5082713;27;21075;-56
2022/04/27 13:34:29;;;;;;;1.95;1.85;;;;;;;;;;5103614;27;20684;-55
2022/04/27 13:37:09;;;;;;;1.90;1.65;;;;;;;;;;5144284;27;20888;-55
2022/04/27 13:39:49;;;;;;;1.85;1.70;;;;;;;;;;5082420;28;21189;-53
2022/04/27 13:42:29;;;;;;;2.10;2.00;;;;;;;;;;5131435;27;20590;-55
2022/04/27 13:45:10;;;;;;;1.60;1.50;;;;;;;;;;5144700;27;20547;-53
2022/04/27 13:47:50;;;;;;;1.70;1.60;;;;;;;;;;5101892;27;20996;-55
2022/04/27 13:50:30;;;;;;;1.55;1.45;;;;;;;;;;5082219;28;20593;-54
2022/04/27 13:53:10;;;;;;;2.38;1.45;;;;;;;;;;5147820;27;20552;-54
2022/04/27 13:55:50;;;;;;;1.90;1.48;;;;;;;;;;5104120;27;20533;-54
2022/04/27 13:58:29;;;;;;;1.50;1.30;;;;;;;;;;5083126;28;20684;-53
2022/04/27 14:01:10;;;;;;;2.00;1.90;;;;;;;;;;5123521;27;21173;-54
2022/04/27 14:03:50;;;;;;;2.08;1.50;;;;;;;;;;5066969;27;21117;-54
2022/04/27 14:06:29;;;;;;;1.50;1.40;;;;;;;;;;5165917;27;20689;-55
2022/04/27 14:09:09;;;;;;;1.90;1.48;;;;;;;;;;5065757;28;20717;-56
2022/04/27 14:14:46;;;;;;;1.48;1.23;;;;;;;;;;5160494;27;21200;-55
2022/04/27 14:20:23;;;;;;;1.20;1.08;;;;;;;;;;5101077;27;20634;-51
2022/04/27 14:23:03;;;;;;;1.33;1.13;;;;;;;;;;5078702;27;20571;-54
2022/04/27 14:25:44;;;;;;;1.73;1.45;;;;;;;;;;5113428;27;20532;-55
2022/04/27 14:28:24;;;;;;;1.60;1.50;;;;;;;;;;5082209;27;20570;-54
2022/04/27 14:31:04;;;;;;;2.67;1.38;;;;;;;;;;5144312;27;20546;-53
2022/04/27 14:33:44;;;;;;;1.38;1.20;;;;;;;;;;5115991;27;20902;-55
2022/04/27 14:36:24;;;;;;;1.40;1.30;;;;;;;;;;5141122;27;20554;-53
2022/04/27 14:39:04;;;;;;;1.45;1.20;;;;;;;;;;5101328;27;20549;-54
2022/04/27 14:41:43;;;;;;;2.00;1.38;;;;;;;;;;5102529;27;20542;-55
2022/04/27 14:44:23;;;;;;;1.10;1.00;;;;;;;;;;5080761;28;20691;-54
2022/04/27 14:47:03;;;;;;;1.30;1.20;;;;;;;;;;5080353;27;21033;-54
2022/04/27 14:49:43;;;;;;;1.50;1.40;;;;;;;;;;5063356;27;21045;-54
2022/04/27 14:52:23;;;;;;;1.33;1.25;;;;;;;;;;5083530;28;20684;-53
2022/04/27 14:55:03;;;;;;;2.33;1.20;;;;;;;;;;5079415;27;20586;-56
2022/04/27 14:57:45;;;;;;;1.92;1.40;;;;;;;;;;5103323;27;20561;-55
2022/04/27 15:00:26;;;;;;;1.20;1.20;;;;;;;;;;5081751;28;20552;-53
2022/04/27 15:03:06;;;;;;;1.25;1.15;;;;;;;;;;5123947;27;20692;-55
2022/04/27 15:05:45;;;;;;;1.42;1.13;;;;;;;;;;5082735;28;20683;-54
2022/04/27 15:08:25;;;;;;;1.40;1.30;;;;;;;;;;5114859;27;20548;-55
2022/04/27 15:11:05;;;;;;;2.33;1.38;;;;;;;;;;5081889;27;20555;-55
2022/04/27 15:13:45;;;;;;;1.80;1.70;;;;;;;;;;5116115;27;20675;-55
2022/04/27 15:16:29;;;;;;;1.33;1.23;;;;;;;;;;5082985;27;20547;-53
2022/04/27 15:19:09;;;;;;;1.30;1.30;;;;;;;;;;5081402;28;20729;-55
2022/04/27 15:24:46;;;;;;;1.73;1.60;;;;;;;;;;5086949;27;20676;-53
2022/04/27 15:27:26;;;;;;;1.27;1.17;;;;;;;;;;5083139;27;20596;-56
2022/04/27 15:30:07;;;;;;;2.45;1.67;;;;;;;;;;5120301;27;20702;-54
2022/04/27 15:32:47;;;;;;;1.48;1.38;;;;;;;;;;5122329;27;20598;-55
2022/04/27 15:35:27;;;;;;;2.30;1.80;;;;;;;;;;5077262;27;20596;-54
2022/04/27 15:38:08;;;;;;;3.85;1.65;;;;;;;;;;5082331;28;20668;-53
2022/04/27 15:40:49;;;;;;;1.83;1.73;;;;;;;;;;5142267;27;20558;-54
2022/04/27 15:43:28;;;;;;;1.48;1.38;;;;;;;;;;5105643;27;20581;-53
2022/04/27 15:46:08;;;;;;;1.35;1.17;;;;;;;;;;5094247;27;20972;-54
2022/04/27 15:48:48;;;;;;;1.70;1.60;;;;;;;;;;5096791;27;21054;-55
2022/04/27 15:51:30;;;;;;;1.58;1.48;;;;;;;;;;5082250;28;21308;-53
2022/04/27 15:54:09;;;;;;;1.58;1.48;;;;;;;;;;5070692;27;20557;-55
2022/04/27 15:56:50;;;;;;;1.77;1.48;;;;;;;;;;5087318;27;20577;-54
2022/04/27 15:59:30;;;;;;;2.22;2.03;;;;;;;;;;5100846;27;20574;-55
2022/04/27 16:02:12;;;;;;;2.00;1.52;;;;;;;;;;5081662;27;20551;-56
2022/04/27 16:04:52;;;;;;;2.03;1.33;;;;;;;;;;5094544;27;20691;-54
2022/04/27 16:07:32;;;;;;;1.80;1.50;;;;;;;;;;5083464;27;20998;-54
2022/04/27 16:10:13;;;;;;;1.40;1.30;;;;;;;;;;5078110;28;21018;-53
2022/04/27 16:12:53;;;;;;;2.72;1.50;;;;;;;;;;5109474;27;20538;-53
2022/04/27 16:15:33;;;;;;;1.95;1.85;;;;;;;;;;5081932;27;20886;-54
2022/04/27 16:18:13;;;;;;;1.52;1.42;;;;;;;;;;5102578;27;20669;-54
2022/04/27 16:23:51;;;;;;;1.60;1.50;;;;;;;;;;5093869;27;20680;-54
2022/04/27 16:26:31;;;;;;;2.70;1.50;;;;;;;;;;5144748;27;20559;-53
2022/04/27 16:29:11;;;;;;;2.03;1.70;;;;;;;;;;5082150;27;20952;-54
2022/04/27 16:31:51;;;;;;;1.98;1.77;;;;;;;;;;5078587;27;20573;-54
2022/04/27 16:34:30;;;;;;;1.70;1.60;;;;;;;;;;5051980;28;20704;-54
2022/04/27 16:37:10;;;;;;;3.30;1.80;;;;;;;;;;5082863;28;20668;-53
2022/04/27 16:39:50;;;;;;;1.95;1.80;;;;;;;;;;5108354;27;20546;-54
2022/04/27 16:42:30;;;;;;;2.15;2.00;;;;;;;;;;5090753;27;20568;-53
2022/04/27 16:45:10;;;;;;;1.88;1.77;;;;;;;;;;5123373;27;21261;-54
2022/04/27 16:47:52;;;;;;;3.58;2.08;;;;;;;;;;5098541;27;20696;-54
2022/04/27 16:50:31;;;;;;;2.10;1.90;;;;;;;;;;5081301;27;20657;-54
2022/04/27 16:53:12;;;;;;;2.15;2.00;;;;;;;;;;5103084;27;20561;-53